aviador You're here:

DTTL Decoded Metar

KELIBIA in TUNISIA
Report Time2018-06-24 09:00:00
UTC Time2018-06-24 09:26:08
Flight Rules vfr VFR
Wind300° at 06 kt
W.Rank300° ranks 1
Current wind is below 300° avg. (7.5)
Visibility9999 m
Phenomena:N/A
Clouds:Scattered 020 Hf
Expected CloudBase > 1,600 ft AGL from Temp-Dew spread
CeilingNone
Temp27°C (ISA +12)
Dew Point23°C (79% RH)
Heat Index29.6°C
QNH1015 hPa
Density Alt1,804 ft
Elevation98 ft
Report Wrong Elevation
Raw Report
DTTL 240900Z 30006KT 210V010 9999 SCT020 27/23 Q1015=

Extra information for DTTL:More info

Metar Taf Metar & Taf Last 4 Metars F.Rules Stats Wind Profile Meteogram Temp Stats Airport Information Weather charts Add Link Nearby VenuesMetar ALERT Operation Metar Decoded Social comments